sensor_id;sensor_type;location;lat;lon;timestamp;temperature;humidity
22337;DHT22;14992;50.844;4.418;2023-04-24T00:01:43;10.80;99.90
22337;DHT22;14992;50.844;4.418;2023-04-24T00:04:12;10.70;99.90
22337;DHT22;14992;50.844;4.418;2023-04-24T00:06:44;10.60;99.90
22337;DHT22;14992;50.844;4.418;2023-04-24T00:09:17;10.70;99.90
22337;DHT22;14992;50.844;4.418;2023-04-24T00:11:46;10.70;99.90
22337;DHT22;14992;50.844;4.418;2023-04-24T00:14:17;10.70;99.90
22337;DHT22;14992;50.844;4.418;2023-04-24T00:16:47;10.70;99.90
22337;DHT22;14992;50.844;4.418;2023-04-24T00:19:16;10.70;99.90
22337;DHT22;14992;50.844;4.418;2023-04-24T00:21:48;10.60;99.90
22337;DHT22;14992;50.844;4.418;2023-04-24T00:24:18;10.50;99.90
22337;DHT22;14992;50.844;4.418;2023-04-24T00:26:47;10.50;99.90
22337;DHT22;14992;50.844;4.418;2023-04-24T00:29:17;10.40;99.90
22337;DHT22;14992;50.844;4.418;2023-04-24T00:31:46;10.30;99.90
22337;DHT22;14992;50.844;4.418;2023-04-24T00:34:15;10.30;99.90
22337;DHT22;14992;50.844;4.418;2023-04-24T00:36:44;10.30;99.90
22337;DHT22;14992;50.844;4.418;2023-04-24T00:39:13;10.30;99.90
22337;DHT22;14992;50.844;4.418;2023-04-24T00:41:43;10.30;99.90
22337;DHT22;14992;50.844;4.418;2023-04-24T00:44:12;10.30;99.90
22337;DHT22;14992;50.844;4.418;2023-04-24T00:46:43;10.20;99.90
22337;DHT22;14992;50.844;4.418;2023-04-24T00:49:12;10.20;99.90
22337;DHT22;14992;50.844;4.418;2023-04-24T00:51:42;10.30;99.90
22337;DHT22;14992;50.844;4.418;2023-04-24T00:54:13;10.20;99.90
22337;DHT22;14992;50.844;4.418;2023-04-24T00:56:44;10.30;99.90
22337;DHT22;14992;50.844;4.418;2023-04-24T00:59:14;10.40;99.90
22337;DHT22;14992;50.844;4.418;2023-04-24T01:01:47;10.40;99.90
22337;DHT22;14992;50.844;4.418;2023-04-24T01:04:17;10.30;99.90
22337;DHT22;14992;50.844;4.418;2023-04-24T01:06:48;10.30;99.90
22337;DHT22;14992;50.844;4.418;2023-04-24T01:09:21;10.30;99.90
22337;DHT22;14992;50.844;4.418;2023-04-24T01:11:51;10.40;99.90
22337;DHT22;14992;50.844;4.418;2023-04-24T01:14:20;10.50;99.90
22337;DHT22;14992;50.844;4.418;2023-04-24T01:16:51;10.40;99.90
22337;DHT22;14992;50.844;4.418;2023-04-24T01:19:20;10.40;99.90
22337;DHT22;14992;50.844;4.418;2023-04-24T01:21:51;10.30;99.90
22337;DHT22;14992;50.844;4.418;2023-04-24T01:24:24;10.20;99.90
22337;DHT22;14992;50.844;4.418;2023-04-24T01:26:54;10.20;99.90
22337;DHT22;14992;50.844;4.418;2023-04-24T01:29:23;10.20;99.90
22337;DHT22;14992;50.844;4.418;2023-04-24T01:31:53;10.10;99.90
22337;DHT22;14992;50.844;4.418;2023-04-24T01:34:22;10.10;99.90
22337;DHT22;14992;50.844;4.418;2023-04-24T01:36:52;10.10;99.90
22337;DHT22;14992;50.844;4.418;2023-04-24T01:39:21;10.20;99.90
22337;DHT22;14992;50.844;4.418;2023-04-24T01:41:52;10.10;99.90
22337;DHT22;14992;50.844;4.418;2023-04-24T01:44:21;10.00;99.90
22337;DHT22;14992;50.844;4.418;2023-04-24T01:46:51;10.10;99.90
22337;DHT22;14992;50.844;4.418;2023-04-24T01:49:22;10.00;99.90
22337;DHT22;14992;50.844;4.418;2023-04-24T01:51:51;10.00;99.90
22337;DHT22;14992;50.844;4.418;2023-04-24T01:54:20;9.90;99.90
22337;DHT22;14992;50.844;4.418;2023-04-24T01:56:50;10.00;99.90
22337;DHT22;14992;50.844;4.418;2023-04-24T01:59:20;9.90;99.90
22337;DHT22;14992;50.844;4.418;2023-04-24T02:01:50;9.90;99.90
22337;DHT22;14992;50.844;4.418;2023-04-24T02:04:19;10.00;99.90
22337;DHT22;14992;50.844;4.418;2023-04-24T02:06:49;10.00;99.90
22337;DHT22;14992;50.844;4.418;2023-04-24T02:09:20;10.10;99.90
22337;DHT22;14992;50.844;4.418;2023-04-24T02:11:50;10.00;99.90
22337;DHT22;14992;50.844;4.418;2023-04-24T02:14:20;10.10;99.90
22337;DHT22;14992;50.844;4.418;2023-04-24T02:16:51;10.10;99.90
22337;DHT22;14992;50.844;4.418;2023-04-24T02:19:21;10.10;99.90
22337;DHT22;14992;50.844;4.418;2023-04-24T02:21:51;10.10;99.90
22337;DHT22;14992;50.844;4.418;2023-04-24T02:24:20;10.00;99.90
22337;DHT22;14992;50.844;4.418;2023-04-24T02:26:49;9.80;99.90
22337;DHT22;14992;50.844;4.418;2023-04-24T02:29:19;9.90;99.90
22337;DHT22;14992;50.844;4.418;2023-04-24T02:31:51;9.80;99.90
22337;DHT22;14992;50.844;4.418;2023-04-24T02:34:21;9.80;99.90
22337;DHT22;14992;50.844;4.418;2023-04-24T02:36:51;9.80;99.90
22337;DHT22;14992;50.844;4.418;2023-04-24T02:39:22;10.00;99.90
22337;DHT22;14992;50.844;4.418;2023-04-24T02:41:52;10.00;99.90
22337;DHT22;14992;50.844;4.418;2023-04-24T02:44:23;10.10;99.90
22337;DHT22;14992;50.844;4.418;2023-04-24T02:46:52;9.90;99.90
22337;DHT22;14992;50.844;4.418;2023-04-24T02:49:23;10.00;99.90
22337;DHT22;14992;50.844;4.418;2023-04-24T02:51:52;9.90;99.90
22337;DHT22;14992;50.844;4.418;2023-04-24T02:54:21;9.80;99.90
22337;DHT22;14992;50.844;4.418;2023-04-24T02:56:51;9.80;99.90
22337;DHT22;14992;50.844;4.418;2023-04-24T02:59:20;9.80;99.90
22337;DHT22;14992;50.844;4.418;2023-04-24T03:01:51;9.80;99.90
22337;DHT22;14992;50.844;4.418;2023-04-24T03:04:20;9.90;99.90
22337;DHT22;14992;50.844;4.418;2023-04-24T03:06:50;9.70;99.90
22337;DHT22;14992;50.844;4.418;2023-04-24T03:09:21;9.70;99.90
22337;DHT22;14992;50.844;4.418;2023-04-24T03:11:51;9.70;99.90
22337;DHT22;14992;50.844;4.418;2023-04-24T03:14:20;9.80;99.90
22337;DHT22;14992;50.844;4.418;2023-04-24T03:16:50;9.70;99.90
22337;DHT22;14992;50.844;4.418;2023-04-24T03:19:19;9.70;99.90
22337;DHT22;14992;50.844;4.418;2023-04-24T03:22:03;9.70;99.90
22337;DHT22;14992;50.844;4.418;2023-04-24T03:24:34;9.70;99.90
22337;DHT22;14992;50.844;4.418;2023-04-24T03:27:04;9.70;99.90
22337;DHT22;14992;50.844;4.418;2023-04-24T03:29:50;9.70;99.90
22337;DHT22;14992;50.844;4.418;2023-04-24T03:32:35;9.60;99.90
22337;DHT22;14992;50.844;4.418;2023-04-24T03:35:09;9.60;99.90
22337;DHT22;14992;50.844;4.418;2023-04-24T03:37:40;9.60;99.90
22337;DHT22;14992;50.844;4.418;2023-04-24T03:40:29;9.60;99.90
22337;DHT22;14992;50.844;4.418;2023-04-24T03:42:59;9.70;99.90
22337;DHT22;14992;50.844;4.418;2023-04-24T03:45:28;9.70;99.90
22337;DHT22;14992;50.844;4.418;2023-04-24T03:47:58;9.70;99.90
22337;DHT22;14992;50.844;4.418;2023-04-24T03:50:28;9.80;99.90
22337;DHT22;14992;50.844;4.418;2023-04-24T03:52:59;9.80;99.90
22337;DHT22;14992;50.844;4.418;2023-04-24T03:55:38;9.80;99.90
22337;DHT22;14992;50.844;4.418;2023-04-24T03:58:07;9.70;99.90
22337;DHT22;14992;50.844;4.418;2023-04-24T04:00:36;9.80;99.90
22337;DHT22;14992;50.844;4.418;2023-04-24T04:03:28;9.90;99.90
22337;DHT22;14992;50.844;4.418;2023-04-24T04:06:00;10.00;99.90
22337;DHT22;14992;50.844;4.418;2023-04-24T04:08:30;10.10;99.90
22337;DHT22;14992;50.844;4.418;2023-04-24T04:10:59;10.20;99.90
22337;DHT22;14992;50.844;4.418;2023-04-24T04:13:31;10.20;99.90
22337;DHT22;14992;50.844;4.418;2023-04-24T04:16:00;10.30;99.90
22337;DHT22;14992;50.844;4.418;2023-04-24T04:21:01;10.30;99.90
22337;DHT22;14992;50.844;4.418;2023-04-24T04:23:31;10.40;99.90
22337;DHT22;14992;50.844;4.418;2023-04-24T04:26:15;10.30;99.90
22337;DHT22;14992;50.844;4.418;2023-04-24T04:29:01;10.40;99.90
22337;DHT22;14992;50.844;4.418;2023-04-24T04:31:32;10.50;99.90
22337;DHT22;14992;50.844;4.418;2023-04-24T04:34:08;10.50;99.90
22337;DHT22;14992;50.844;4.418;2023-04-24T04:36:38;10.40;99.90
22337;DHT22;14992;50.844;4.418;2023-04-24T04:39:35;10.40;99.90
22337;DHT22;14992;50.844;4.418;2023-04-24T04:42:08;10.30;99.90
22337;DHT22;14992;50.844;4.418;2023-04-24T04:44:41;10.30;99.90
22337;DHT22;14992;50.844;4.418;2023-04-24T04:47:15;10.20;99.90
22337;DHT22;14992;50.844;4.418;2023-04-24T04:49:47;10.20;99.90
22337;DHT22;14992;50.844;4.418;2023-04-24T04:52:19;10.20;99.90
22337;DHT22;14992;50.844;4.418;2023-04-24T04:55:00;10.10;99.90
22337;DHT22;14992;50.844;4.418;2023-04-24T04:57:50;10.10;99.90
22337;DHT22;14992;50.844;4.418;2023-04-24T05:00:20;10.10;99.90
22337;DHT22;14992;50.844;4.418;2023-04-24T05:02:52;10.00;99.90
22337;DHT22;14992;50.844;4.418;2023-04-24T05:05:24;10.10;99.90
22337;DHT22;14992;50.844;4.418;2023-04-24T05:07:54;10.10;99.90
22337;DHT22;14992;50.844;4.418;2023-04-24T05:10:24;10.00;99.90
22337;DHT22;14992;50.844;4.418;2023-04-24T05:12:54;10.00;99.90
22337;DHT22;14992;50.844;4.418;2023-04-24T05:15:24;10.00;99.90
22337;DHT22;14992;50.844;4.418;2023-04-24T05:17:53;9.80;99.90
22337;DHT22;14992;50.844;4.418;2023-04-24T05:20:26;9.90;99.90
22337;DHT22;14992;50.844;4.418;2023-04-24T05:22:55;10.00;99.90
22337;DHT22;14992;50.844;4.418;2023-04-24T05:25:26;9.90;99.90
22337;DHT22;14992;50.844;4.418;2023-04-24T05:28:04;9.80;99.90
22337;DHT22;14992;50.844;4.418;2023-04-24T05:30:34;9.90;99.90
22337;DHT22;14992;50.844;4.418;2023-04-24T05:33:04;9.90;99.90
22337;DHT22;14992;50.844;4.418;2023-04-24T05:35:36;9.90;99.90
22337;DHT22;14992;50.844;4.418;2023-04-24T05:38:05;9.90;99.90
22337;DHT22;14992;50.844;4.418;2023-04-24T05:40:34;9.80;99.90
22337;DHT22;14992;50.844;4.418;2023-04-24T05:43:04;9.80;99.90
22337;DHT22;14992;50.844;4.418;2023-04-24T05:45:33;9.80;99.90
22337;DHT22;14992;50.844;4.418;2023-04-24T05:48:04;9.80;99.90
22337;DHT22;14992;50.844;4.418;2023-04-24T05:50:35;9.90;99.90
22337;DHT22;14992;50.844;4.418;2023-04-24T05:53:05;9.90;99.90
22337;DHT22;14992;50.844;4.418;2023-04-24T05:55:36;10.00;99.90
22337;DHT22;14992;50.844;4.418;2023-04-24T05:58:07;10.10;99.90
22337;DHT22;14992;50.844;4.418;2023-04-24T06:00:37;10.10;99.90
22337;DHT22;14992;50.844;4.418;2023-04-24T06:03:08;10.00;99.90
22337;DHT22;14992;50.844;4.418;2023-04-24T06:05:39;10.00;99.90
22337;DHT22;14992;50.844;4.418;2023-04-24T06:08:09;10.00;99.90
22337;DHT22;14992;50.844;4.418;2023-04-24T06:10:40;9.90;99.90
22337;DHT22;14992;50.844;4.418;2023-04-24T06:13:11;9.90;99.90
22337;DHT22;14992;50.844;4.418;2023-04-24T06:15:47;9.90;99.90
22337;DHT22;14992;50.844;4.418;2023-04-24T06:18:21;9.80;99.90
22337;DHT22;14992;50.844;4.418;2023-04-24T06:20:51;9.80;99.90
22337;DHT22;14992;50.844;4.418;2023-04-24T06:23:20;9.90;99.90
22337;DHT22;14992;50.844;4.418;2023-04-24T06:25:49;9.90;99.90
22337;DHT22;14992;50.844;4.418;2023-04-24T06:28:18;9.90;99.90
22337;DHT22;14992;50.844;4.418;2023-04-24T06:30:47;10.00;99.90
22337;DHT22;14992;50.844;4.418;2023-04-24T06:33:16;10.00;99.90
22337;DHT22;14992;50.844;4.418;2023-04-24T06:35:50;10.00;99.90
22337;DHT22;14992;50.844;4.418;2023-04-24T06:38:19;9.90;99.90
22337;DHT22;14992;50.844;4.418;2023-04-24T06:40:48;9.90;99.90
22337;DHT22;14992;50.844;4.418;2023-04-24T06:43:17;9.90;99.90
22337;DHT22;14992;50.844;4.418;2023-04-24T06:45:47;9.90;99.90
22337;DHT22;14992;50.844;4.418;2023-04-24T06:48:16;9.90;99.90
22337;DHT22;14992;50.844;4.418;2023-04-24T06:50:45;9.80;99.90
22337;DHT22;14992;50.844;4.418;2023-04-24T06:53:15;9.70;99.90
22337;DHT22;14992;50.844;4.418;2023-04-24T06:55:44;9.80;99.90
22337;DHT22;14992;50.844;4.418;2023-04-24T06:58:14;9.90;99.90
22337;DHT22;14992;50.844;4.418;2023-04-24T07:00:43;10.00;99.90
22337;DHT22;14992;50.844;4.418;2023-04-24T07:03:13;10.20;99.90
22337;DHT22;14992;50.844;4.418;2023-04-24T07:05:42;10.20;99.90
22337;DHT22;14992;50.844;4.418;2023-04-24T07:08:11;10.20;99.90
22337;DHT22;14992;50.844;4.418;2023-04-24T07:10:42;10.20;99.90
22337;DHT22;14992;50.844;4.418;2023-04-24T07:13:11;10.20;99.90
22337;DHT22;14992;50.844;4.418;2023-04-24T07:15:40;10.10;99.90
22337;DHT22;14992;50.844;4.418;2023-04-24T07:18:09;10.20;99.90
22337;DHT22;14992;50.844;4.418;2023-04-24T07:20:38;10.30;99.90
22337;DHT22;14992;50.844;4.418;2023-04-24T07:23:07;10.30;99.90
22337;DHT22;14992;50.844;4.418;2023-04-24T07:25:37;10.50;99.90
22337;DHT22;14992;50.844;4.418;2023-04-24T07:28:08;10.60;99.90
22337;DHT22;14992;50.844;4.418;2023-04-24T07:30:37;10.80;99.90
22337;DHT22;14992;50.844;4.418;2023-04-24T07:33:06;10.90;99.90
22337;DHT22;14992;50.844;4.418;2023-04-24T07:35:35;10.90;99.90
22337;DHT22;14992;50.844;4.418;2023-04-24T07:38:04;10.90;99.90
22337;DHT22;14992;50.844;4.418;2023-04-24T07:40:33;11.00;99.90
22337;DHT22;14992;50.844;4.418;2023-04-24T07:43:02;11.10;99.90
22337;DHT22;14992;50.844;4.418;2023-04-24T07:45:33;11.10;99.90
22337;DHT22;14992;50.844;4.418;2023-04-24T07:48:04;11.20;99.90
22337;DHT22;14992;50.844;4.418;2023-04-24T07:50:33;11.10;99.90
22337;DHT22;14992;50.844;4.418;2023-04-24T07:53:03;10.90;99.90
22337;DHT22;14992;50.844;4.418;2023-04-24T07:55:32;10.90;99.90
22337;DHT22;14992;50.844;4.418;2023-04-24T07:58:01;10.80;99.90
22337;DHT22;14992;50.844;4.418;2023-04-24T08:00:31;11.00;99.90
22337;DHT22;14992;50.844;4.418;2023-04-24T08:03:00;11.00;99.90
22337;DHT22;14992;50.844;4.418;2023-04-24T08:05:30;11.00;99.90
22337;DHT22;14992;50.844;4.418;2023-04-24T08:07:59;11.20;99.90
22337;DHT22;14992;50.844;4.418;2023-04-24T08:10:28;11.30;99.90
22337;DHT22;14992;50.844;4.418;2023-04-24T08:12:56;11.50;99.90
22337;DHT22;14992;50.844;4.418;2023-04-24T08:15:27;11.50;99.90
22337;DHT22;14992;50.844;4.418;2023-04-24T08:18:59;11.40;99.90
22337;DHT22;14992;50.844;4.418;2023-04-24T08:21:28;11.40;99.90
22337;DHT22;14992;50.844;4.418;2023-04-24T08:23:57;11.30;99.90
22337;DHT22;14992;50.844;4.418;2023-04-24T08:26:26;11.60;99.90
22337;DHT22;14992;50.844;4.418;2023-04-24T08:28:55;11.80;99.90
22337;DHT22;14992;50.844;4.418;2023-04-24T08:31:25;12.00;99.90
22337;DHT22;14992;50.844;4.418;2023-04-24T08:33:55;12.00;99.90
22337;DHT22;14992;50.844;4.418;2023-04-24T08:36:26;12.00;99.90
22337;DHT22;14992;50.844;4.418;2023-04-24T08:39:14;12.00;99.90
22337;DHT22;14992;50.844;4.418;2023-04-24T08:41:43;12.20;99.90
22337;DHT22;14992;50.844;4.418;2023-04-24T08:44:13;12.20;99.90
22337;DHT22;14992;50.844;4.418;2023-04-24T08:46:44;12.10;99.90
22337;DHT22;14992;50.844;4.418;2023-04-24T08:49:15;12.10;99.90
22337;DHT22;14992;50.844;4.418;2023-04-24T08:51:46;12.10;99.90
22337;DHT22;14992;50.844;4.418;2023-04-24T08:54:16;12.10;99.90
22337;DHT22;14992;50.844;4.418;2023-04-24T08:56:48;12.30;99.90
22337;DHT22;14992;50.844;4.418;2023-04-24T08:59:18;12.30;99.90
22337;DHT22;14992;50.844;4.418;2023-04-24T09:01:48;12.40;99.90
22337;DHT22;14992;50.844;4.418;2023-04-24T09:04:20;12.30;99.90
22337;DHT22;14992;50.844;4.418;2023-04-24T09:06:57;12.60;99.90
22337;DHT22;14992;50.844;4.418;2023-04-24T09:09:28;12.90;99.90
22337;DHT22;14992;50.844;4.418;2023-04-24T09:11:58;13.00;99.90
22337;DHT22;14992;50.844;4.418;2023-04-24T09:14:27;13.00;99.90
22337;DHT22;14992;50.844;4.418;2023-04-24T09:16:59;12.90;99.90
22337;DHT22;14992;50.844;4.418;2023-04-24T09:19:29;13.10;99.90
22337;DHT22;14992;50.844;4.418;2023-04-24T09:21:59;13.10;99.90
22337;DHT22;14992;50.844;4.418;2023-04-24T09:24:34;13.30;99.90
22337;DHT22;14992;50.844;4.418;2023-04-24T09:27:04;13.40;99.90
22337;DHT22;14992;50.844;4.418;2023-04-24T09:29:33;13.20;99.90
22337;DHT22;14992;50.844;4.418;2023-04-24T09:32:18;13.20;99.90
22337;DHT22;14992;50.844;4.418;2023-04-24T09:34:49;13.10;99.90
22337;DHT22;14992;50.844;4.418;2023-04-24T09:37:29;12.80;99.90
22337;DHT22;14992;50.844;4.418;2023-04-24T09:40:11;12.70;99.90
22337;DHT22;14992;50.844;4.418;2023-04-24T09:42:44;12.90;99.90
22337;DHT22;14992;50.844;4.418;2023-04-24T09:45:13;13.10;99.90
22337;DHT22;14992;50.844;4.418;2023-04-24T09:47:42;13.00;99.90
22337;DHT22;14992;50.844;4.418;2023-04-24T09:50:14;12.90;99.90
22337;DHT22;14992;50.844;4.418;2023-04-24T09:52:58;12.90;99.90
22337;DHT22;14992;50.844;4.418;2023-04-24T09:55:27;13.30;99.90
22337;DHT22;14992;50.844;4.418;2023-04-24T09:57:57;13.40;99.90
22337;DHT22;14992;50.844;4.418;2023-04-24T10:00:29;13.40;99.90
22337;DHT22;14992;50.844;4.418;2023-04-24T10:02:59;13.30;99.90
22337;DHT22;14992;50.844;4.418;2023-04-24T10:05:30;13.10;99.90
22337;DHT22;14992;50.844;4.418;2023-04-24T10:08:05;13.00;99.90
22337;DHT22;14992;50.844;4.418;2023-04-24T10:10:37;13.30;99.90
22337;DHT22;14992;50.844;4.418;2023-04-24T10:13:08;13.50;99.90
22337;DHT22;14992;50.844;4.418;2023-04-24T10:15:38;13.60;99.90
22337;DHT22;14992;50.844;4.418;2023-04-24T10:18:09;13.40;99.90
22337;DHT22;14992;50.844;4.418;2023-04-24T10:20:40;13.40;99.90
22337;DHT22;14992;50.844;4.418;2023-04-24T10:23:11;13.40;99.90
22337;DHT22;14992;50.844;4.418;2023-04-24T10:25:40;13.40;99.90
22337;DHT22;14992;50.844;4.418;2023-04-24T10:28:10;13.40;99.90
22337;DHT22;14992;50.844;4.418;2023-04-24T10:30:42;13.20;99.90
22337;DHT22;14992;50.844;4.418;2023-04-24T10:33:12;13.10;99.90
22337;DHT22;14992;50.844;4.418;2023-04-24T10:35:44;13.20;99.90
22337;DHT22;14992;50.844;4.418;2023-04-24T10:38:21;13.40;99.90
22337;DHT22;14992;50.844;4.418;2023-04-24T10:40:57;13.40;99.90
22337;DHT22;14992;50.844;4.418;2023-04-24T10:43:37;13.50;99.90
22337;DHT22;14992;50.844;4.418;2023-04-24T10:46:09;13.70;99.90
22337;DHT22;14992;50.844;4.418;2023-04-24T10:48:42;13.90;99.90
22337;DHT22;14992;50.844;4.418;2023-04-24T10:51:14;14.20;99.90
22337;DHT22;14992;50.844;4.418;2023-04-24T10:53:45;14.30;99.90
22337;DHT22;14992;50.844;4.418;2023-04-24T10:56:16;14.20;99.90
22337;DHT22;14992;50.844;4.418;2023-04-24T10:58:51;14.10;99.90
22337;DHT22;14992;50.844;4.418;2023-04-24T11:01:25;14.00;99.90
22337;DHT22;14992;50.844;4.418;2023-04-24T11:03:56;13.90;99.90
22337;DHT22;14992;50.844;4.418;2023-04-24T11:06:30;13.70;99.90
22337;DHT22;14992;50.844;4.418;2023-04-24T11:09:07;13.70;99.90
22337;DHT22;14992;50.844;4.418;2023-04-24T11:11:45;13.40;99.90
22337;DHT22;14992;50.844;4.418;2023-04-24T11:14:16;13.30;99.90
22337;DHT22;14992;50.844;4.418;2023-04-24T11:16:52;13.40;99.90
22337;DHT22;14992;50.844;4.418;2023-04-24T11:19:23;13.50;99.90
22337;DHT22;14992;50.844;4.418;2023-04-24T11:21:56;13.60;99.90
22337;DHT22;14992;50.844;4.418;2023-04-24T11:24:31;13.70;99.90
22337;DHT22;14992;50.844;4.418;2023-04-24T11:27:06;13.90;99.90
22337;DHT22;14992;50.844;4.418;2023-04-24T11:29:41;14.20;99.90
22337;DHT22;14992;50.844;4.418;2023-04-24T11:32:25;14.50;99.90
22337;DHT22;14992;50.844;4.418;2023-04-24T11:34:56;14.40;99.90
22337;DHT22;14992;50.844;4.418;2023-04-24T11:37:27;14.30;99.90
22337;DHT22;14992;50.844;4.418;2023-04-24T11:39:58;14.20;99.90
22337;DHT22;14992;50.844;4.418;2023-04-24T11:42:33;14.20;99.90
22337;DHT22;14992;50.844;4.418;2023-04-24T11:45:08;14.40;99.90
22337;DHT22;14992;50.844;4.418;2023-04-24T11:47:37;14.50;99.90
22337;DHT22;14992;50.844;4.418;2023-04-24T11:50:08;14.60;99.90
22337;DHT22;14992;50.844;4.418;2023-04-24T11:52:39;14.60;99.90
22337;DHT22;14992;50.844;4.418;2023-04-24T11:55:23;14.60;99.90
22337;DHT22;14992;50.844;4.418;2023-04-24T11:57:55;14.70;99.90
22337;DHT22;14992;50.844;4.418;2023-04-24T12:00:27;14.80;99.90
22337;DHT22;14992;50.844;4.418;2023-04-24T12:03:05;14.90;99.90
22337;DHT22;14992;50.844;4.418;2023-04-24T12:05:35;14.50;99.90
22337;DHT22;14992;50.844;4.418;2023-04-24T12:08:06;14.60;99.90
22337;DHT22;14992;50.844;4.418;2023-04-24T12:10:36;14.80;99.90
22337;DHT22;14992;50.844;4.418;2023-04-24T12:13:09;15.10;99.90
22337;DHT22;14992;50.844;4.418;2023-04-24T12:15:40;15.10;99.90
22337;DHT22;14992;50.844;4.418;2023-04-24T12:18:12;15.20;99.90
22337;DHT22;14992;50.844;4.418;2023-04-24T12:20:41;14.80;99.90
22337;DHT22;14992;50.844;4.418;2023-04-24T12:23:10;14.70;99.90
22337;DHT22;14992;50.844;4.418;2023-04-24T12:25:41;14.60;99.90
22337;DHT22;14992;50.844;4.418;2023-04-24T12:28:11;14.50;99.90
22337;DHT22;14992;50.844;4.418;2023-04-24T12:30:42;14.40;99.90
22337;DHT22;14992;50.844;4.418;2023-04-24T12:33:12;14.30;99.90
22337;DHT22;14992;50.844;4.418;2023-04-24T12:35:42;14.50;99.90
22337;DHT22;14992;50.844;4.418;2023-04-24T12:38:12;14.60;99.90
22337;DHT22;14992;50.844;4.418;2023-04-24T12:40:43;14.60;99.90
22337;DHT22;14992;50.844;4.418;2023-04-24T12:43:13;14.50;99.90
22337;DHT22;14992;50.844;4.418;2023-04-24T12:45:43;14.40;99.90
22337;DHT22;14992;50.844;4.418;2023-04-24T12:48:13;14.50;99.90
22337;DHT22;14992;50.844;4.418;2023-04-24T12:50:43;14.80;99.90
22337;DHT22;14992;50.844;4.418;2023-04-24T12:53:15;14.90;99.90
22337;DHT22;14992;50.844;4.418;2023-04-24T12:55:46;14.50;99.90
22337;DHT22;14992;50.844;4.418;2023-04-24T12:58:21;14.20;99.90
22337;DHT22;14992;50.844;4.418;2023-04-24T13:00:50;14.00;99.90
22337;DHT22;14992;50.844;4.418;2023-04-24T13:03:19;14.10;99.90
22337;DHT22;14992;50.844;4.418;2023-04-24T13:05:50;14.40;99.90
22337;DHT22;14992;50.844;4.418;2023-04-24T13:08:19;14.60;99.90
22337;DHT22;14992;50.844;4.418;2023-04-24T13:10:51;14.90;99.90
22337;DHT22;14992;50.844;4.418;2023-04-24T13:13:21;15.10;99.90
22337;DHT22;14992;50.844;4.418;2023-04-24T13:15:50;15.30;99.90
22337;DHT22;14992;50.844;4.418;2023-04-24T13:18:19;15.40;99.90
22337;DHT22;14992;50.844;4.418;2023-04-24T13:20:49;15.60;99.90
22337;DHT22;14992;50.844;4.418;2023-04-24T13:23:19;15.70;99.90
22337;DHT22;14992;50.844;4.418;2023-04-24T13:25:51;15.60;99.90
22337;DHT22;14992;50.844;4.418;2023-04-24T13:28:22;15.40;99.90
22337;DHT22;14992;50.844;4.418;2023-04-24T13:30:52;15.50;99.90
22337;DHT22;14992;50.844;4.418;2023-04-24T13:33:21;15.20;99.90
22337;DHT22;14992;50.844;4.418;2023-04-24T13:35:50;14.90;99.90
22337;DHT22;14992;50.844;4.418;2023-04-24T13:38:19;14.90;99.90
22337;DHT22;14992;50.844;4.418;2023-04-24T13:40:50;15.10;99.90
22337;DHT22;14992;50.844;4.418;2023-04-24T13:43:20;15.30;99.90
22337;DHT22;14992;50.844;4.418;2023-04-24T13:45:48;15.50;99.90
22337;DHT22;14992;50.844;4.418;2023-04-24T13:48:18;15.50;99.90
22337;DHT22;14992;50.844;4.418;2023-04-24T13:50:49;15.50;99.90
22337;DHT22;14992;50.844;4.418;2023-04-24T13:53:18;15.30;99.90
22337;DHT22;14992;50.844;4.418;2023-04-24T13:55:47;15.40;99.90
22337;DHT22;14992;50.844;4.418;2023-04-24T13:58:19;15.60;99.90
22337;DHT22;14992;50.844;4.418;2023-04-24T14:00:48;15.50;99.90
22337;DHT22;14992;50.844;4.418;2023-04-24T14:03:18;15.40;99.90
22337;DHT22;14992;50.844;4.418;2023-04-24T14:05:48;15.70;99.90
22337;DHT22;14992;50.844;4.418;2023-04-24T14:08:18;15.80;99.90
22337;DHT22;14992;50.844;4.418;2023-04-24T14:10:47;15.90;99.90
22337;DHT22;14992;50.844;4.418;2023-04-24T14:13:19;16.00;99.90
22337;DHT22;14992;50.844;4.418;2023-04-24T14:15:49;16.00;99.90
22337;DHT22;14992;50.844;4.418;2023-04-24T14:18:18;15.80;99.90
22337;DHT22;14992;50.844;4.418;2023-04-24T14:20:48;15.50;99.90
22337;DHT22;14992;50.844;4.418;2023-04-24T14:23:18;15.40;99.90
22337;DHT22;14992;50.844;4.418;2023-04-24T14:25:48;15.50;99.90
22337;DHT22;14992;50.844;4.418;2023-04-24T14:28:21;15.20;99.90
22337;DHT22;14992;50.844;4.418;2023-04-24T14:30:54;15.20;99.90
22337;DHT22;14992;50.844;4.418;2023-04-24T14:33:23;15.20;99.90
22337;DHT22;14992;50.844;4.418;2023-04-24T14:35:51;15.00;99.90
22337;DHT22;14992;50.844;4.418;2023-04-24T14:38:21;14.90;99.90
22337;DHT22;14992;50.844;4.418;2023-04-24T14:40:51;14.70;99.90
22337;DHT22;14992;50.844;4.418;2023-04-24T14:43:35;14.70;99.90
22337;DHT22;14992;50.844;4.418;2023-04-24T14:46:05;14.70;99.90
22337;DHT22;14992;50.844;4.418;2023-04-24T14:48:34;14.80;99.90
22337;DHT22;14992;50.844;4.418;2023-04-24T14:51:03;14.60;99.90
22337;DHT22;14992;50.844;4.418;2023-04-24T14:53:33;14.60;99.90
22337;DHT22;14992;50.844;4.418;2023-04-24T14:56:03;14.60;99.90
22337;DHT22;14992;50.844;4.418;2023-04-24T14:58:32;14.40;99.90
22337;DHT22;14992;50.844;4.418;2023-04-24T15:01:04;14.20;99.90
22337;DHT22;14992;50.844;4.418;2023-04-24T15:03:33;14.40;99.90
22337;DHT22;14992;50.844;4.418;2023-04-24T15:06:04;14.40;99.90
22337;DHT22;14992;50.844;4.418;2023-04-24T15:08:33;14.50;99.90
22337;DHT22;14992;50.844;4.418;2023-04-24T15:11:02;14.70;99.90
22337;DHT22;14992;50.844;4.418;2023-04-24T15:13:31;14.50;99.90
22337;DHT22;14992;50.844;4.418;2023-04-24T15:16:00;14.70;99.90
22337;DHT22;14992;50.844;4.418;2023-04-24T15:18:31;14.60;99.90
22337;DHT22;14992;50.844;4.418;2023-04-24T15:21:00;14.50;99.90
22337;DHT22;14992;50.844;4.418;2023-04-24T15:23:29;14.70;99.90
22337;DHT22;14992;50.844;4.418;2023-04-24T15:25:58;14.90;99.90
22337;DHT22;14992;50.844;4.418;2023-04-24T15:28:28;15.10;99.90
22337;DHT22;14992;50.844;4.418;2023-04-24T15:30:57;15.00;99.90
22337;DHT22;14992;50.844;4.418;2023-04-24T15:33:26;14.90;99.90
22337;DHT22;14992;50.844;4.418;2023-04-24T15:35:57;14.80;99.90
22337;DHT22;14992;50.844;4.418;2023-04-24T15:38:26;14.80;99.90
22337;DHT22;14992;50.844;4.418;2023-04-24T15:40:55;14.90;99.90
22337;DHT22;14992;50.844;4.418;2023-04-24T15:43:24;14.90;99.90
22337;DHT22;14992;50.844;4.418;2023-04-24T15:45:54;15.00;99.90
22337;DHT22;14992;50.844;4.418;2023-04-24T15:48:23;14.40;99.90
22337;DHT22;14992;50.844;4.418;2023-04-24T15:50:52;14.50;99.90
22337;DHT22;14992;50.844;4.418;2023-04-24T15:53:27;14.60;99.90
22337;DHT22;14992;50.844;4.418;2023-04-24T15:55:56;14.40;99.90
22337;DHT22;14992;50.844;4.418;2023-04-24T15:58:26;14.40;99.90
22337;DHT22;14992;50.844;4.418;2023-04-24T16:00:55;14.50;99.90